sensor_id;sensor_type;location;lat;lon;timestamp;P1;P2;P0
78512;PMS5003;67809;55.034;73.462;2023-02-25T00:01:45;67.00;50.50;30.50
78512;PMS5003;67809;55.034;73.462;2023-02-25T00:04:11;34.75;25.75;16.50
78512;PMS5003;67809;55.034;73.462;2023-02-25T00:06:37;49.00;36.00;21.00
78512;PMS5003;67809;55.034;73.462;2023-02-25T00:09:03;38.00;30.00;17.00
78512;PMS5003;67809;55.034;73.462;2023-02-25T00:11:31;39.00;30.00;18.00
78512;PMS5003;67809;55.034;73.462;2023-02-25T00:13:57;32.00;25.00;14.00
78512;PMS5003;67809;55.034;73.462;2023-02-25T00:16:23;30.50;22.75;11.75
78512;PMS5003;67809;55.034;73.462;2023-02-25T00:18:53;32.00;24.25;14.75
78512;PMS5003;67809;55.034;73.462;2023-02-25T00:21:19;29.00;22.50;13.50
78512;PMS5003;67809;55.034;73.462;2023-02-25T00:23:45;37.50;28.75;16.75
78512;PMS5003;67809;55.034;73.462;2023-02-25T00:26:17;77.75;57.25;33.50
78512;PMS5003;67809;55.034;73.462;2023-02-25T00:28:44;103.00;82.00;47.00
78512;PMS5003;67809;55.034;73.462;2023-02-25T00:31:12;50.75;37.00;18.75
78512;PMS5003;67809;55.034;73.462;2023-02-25T00:33:40;154.50;115.75;67.00
78512;PMS5003;67809;55.034;73.462;2023-02-25T00:36:07;96.50;72.50;43.00
78512;PMS5003;67809;55.034;73.462;2023-02-25T00:38:33;155.33;116.00;70.67
78512;PMS5003;67809;55.034;73.462;2023-02-25T00:41:11;83.25;64.50;39.00
78512;PMS5003;67809;55.034;73.462;2023-02-25T00:43:38;82.75;60.75;36.25
78512;PMS5003;67809;55.034;73.462;2023-02-25T00:46:04;47.00;36.00;23.75
78512;PMS5003;67809;55.034;73.462;2023-02-25T00:48:31;46.00;35.00;20.67
78512;PMS5003;67809;55.034;73.462;2023-02-25T00:51:03;42.00;31.75;18.00
78512;PMS5003;67809;55.034;73.462;2023-02-25T00:53:34;36.00;27.75;16.25
78512;PMS5003;67809;55.034;73.462;2023-02-25T00:56:03;37.75;27.75;15.75
78512;PMS5003;67809;55.034;73.462;2023-02-25T00:58:39;41.00;30.00;18.33
78512;PMS5003;67809;55.034;73.462;2023-02-25T01:01:16;39.75;29.50;17.75
78512;PMS5003;67809;55.034;73.462;2023-02-25T01:03:42;40.50;29.00;17.50
78512;PMS5003;67809;55.034;73.462;2023-02-25T01:06:08;32.50;23.75;12.25
78512;PMS5003;67809;55.034;73.462;2023-02-25T01:08:39;29.75;23.25;12.50
78512;PMS5003;67809;55.034;73.462;2023-02-25T01:11:15;33.25;24.25;12.25
78512;PMS5003;67809;55.034;73.462;2023-02-25T01:13:46;33.25;24.50;16.00
78512;PMS5003;67809;55.034;73.462;2023-02-25T01:16:22;29.00;22.25;12.25
78512;PMS5003;67809;55.034;73.462;2023-02-25T01:19:00;35.00;26.33;16.00
78512;PMS5003;67809;55.034;73.462;2023-02-25T01:21:37;32.50;23.50;13.75
78512;PMS5003;67809;55.034;73.462;2023-02-25T01:24:10;30.50;20.75;11.75
78512;PMS5003;67809;55.034;73.462;2023-02-25T01:26:37;33.25;24.50;14.25
78512;PMS5003;67809;55.034;73.462;2023-02-25T01:29:22;32.50;24.00;13.50
78512;PMS5003;67809;55.034;73.462;2023-02-25T01:31:55;32.50;24.00;16.00
78512;PMS5003;67809;55.034;73.462;2023-02-25T01:34:22;27.00;20.25;12.00
78512;PMS5003;67809;55.034;73.462;2023-02-25T01:36:54;33.00;25.25;15.50
78512;PMS5003;67809;55.034;73.462;2023-02-25T01:39:20;29.50;23.25;12.75
78512;PMS5003;67809;55.034;73.462;2023-02-25T01:41:47;32.25;24.00;13.25
78512;PMS5003;67809;55.034;73.462;2023-02-25T01:44:16;40.75;30.25;18.00
78512;PMS5003;67809;55.034;73.462;2023-02-25T01:46:47;30.00;22.00;13.50
78512;PMS5003;67809;55.034;73.462;2023-02-25T01:49:15;28.33;21.33;11.00
78512;PMS5003;67809;55.034;73.462;2023-02-25T01:51:43;36.75;28.50;17.50
78512;PMS5003;67809;55.034;73.462;2023-02-25T01:54:11;35.00;25.00;15.00
78512;PMS5003;67809;55.034;73.462;2023-02-25T01:56:38;31.25;23.75;13.75
78512;PMS5003;67809;55.034;73.462;2023-02-25T01:59:06;24.00;19.50;10.75
78512;PMS5003;67809;55.034;73.462;2023-02-25T02:01:32;33.00;25.00;13.00
78512;PMS5003;67809;55.034;73.462;2023-02-25T02:04:02;35.00;25.75;15.00
78512;PMS5003;67809;55.034;73.462;2023-02-25T02:06:31;27.00;22.25;11.00
78512;PMS5003;67809;55.034;73.462;2023-02-25T02:08:59;27.33;21.33;12.33
78512;PMS5003;67809;55.034;73.462;2023-02-25T02:11:26;28.50;21.00;11.50
78512;PMS5003;67809;55.034;73.462;2023-02-25T02:13:57;32.75;24.25;15.75
78512;PMS5003;67809;55.034;73.462;2023-02-25T02:16:35;35.50;26.50;14.25
78512;PMS5003;67809;55.034;73.462;2023-02-25T02:19:15;34.00;27.00;16.00
78512;PMS5003;67809;55.034;73.462;2023-02-25T02:24:22;34.25;25.50;15.50
78512;PMS5003;67809;55.034;73.462;2023-02-25T02:35:43;44.25;32.00;18.00
78512;PMS5003;67809;55.034;73.462;2023-02-25T02:43:43;40.50;29.75;18.00
78512;PMS5003;67809;55.034;73.462;2023-02-25T02:46:25;43.50;31.50;17.75
78512;PMS5003;67809;55.034;73.462;2023-02-25T02:49:08;43.50;31.00;19.25
78512;PMS5003;67809;55.034;73.462;2023-02-25T02:51:38;39.75;30.25;16.50
78512;PMS5003;67809;55.034;73.462;2023-02-25T02:54:07;39.75;30.25;19.00
78512;PMS5003;67809;55.034;73.462;2023-02-25T02:56:36;48.75;34.00;21.00
78512;PMS5003;67809;55.034;73.462;2023-02-25T02:59:22;45.50;32.00;20.00
78512;PMS5003;67809;55.034;73.462;2023-02-25T03:01:56;38.67;27.00;16.33
78512;PMS5003;67809;55.034;73.462;2023-02-25T03:04:26;33.25;25.75;14.25
78512;PMS5003;67809;55.034;73.462;2023-02-25T03:07:04;36.75;28.25;15.75
78512;PMS5003;67809;55.034;73.462;2023-02-25T03:09:42;36.25;28.25;18.00
78512;PMS5003;67809;55.034;73.462;2023-02-25T03:12:11;39.75;28.75;17.75
78512;PMS5003;67809;55.034;73.462;2023-02-25T03:14:37;50.25;35.00;20.50
78512;PMS5003;67809;55.034;73.462;2023-02-25T03:17:14;36.50;27.75;16.50
78512;PMS5003;67809;55.034;73.462;2023-02-25T03:22:13;42.00;30.00;18.00
78512;PMS5003;67809;55.034;73.462;2023-02-25T03:24:53;46.00;34.00;21.50
78512;PMS5003;67809;55.034;73.462;2023-02-25T03:27:41;44.75;32.75;19.50
78512;PMS5003;67809;55.034;73.462;2023-02-25T03:32:41;42.00;30.25;19.00
78512;PMS5003;67809;55.034;73.462;2023-02-25T03:35:08;45.00;34.50;22.00
78512;PMS5003;67809;55.034;73.462;2023-02-25T03:37:41;43.00;32.75;19.75
78512;PMS5003;67809;55.034;73.462;2023-02-25T03:40:09;44.00;29.33;17.33
78512;PMS5003;67809;55.034;73.462;2023-02-25T03:45:40;49.50;35.50;20.50
78512;PMS5003;67809;55.034;73.462;2023-02-25T03:48:08;33.00;24.25;13.50
78512;PMS5003;67809;55.034;73.462;2023-02-25T03:50:43;35.25;27.00;17.00
78512;PMS5003;67809;55.034;73.462;2023-02-25T03:53:12;32.75;25.00;15.50
78512;PMS5003;67809;55.034;73.462;2023-02-25T03:56:07;38.00;29.00;18.00
78512;PMS5003;67809;55.034;73.462;2023-02-25T03:58:35;36.00;27.50;16.25
78512;PMS5003;67809;55.034;73.462;2023-02-25T04:01:14;33.00;24.33;12.33
78512;PMS5003;67809;55.034;73.462;2023-02-25T04:03:41;36.00;25.75;14.75
78512;PMS5003;67809;55.034;73.462;2023-02-25T04:06:09;42.25;30.75;18.00
78512;PMS5003;67809;55.034;73.462;2023-02-25T04:08:35;38.00;28.25;15.75
78512;PMS5003;67809;55.034;73.462;2023-02-25T04:11:01;34.00;26.00;16.25
78512;PMS5003;67809;55.034;73.462;2023-02-25T04:13:27;39.75;30.00;18.00
78512;PMS5003;67809;55.034;73.462;2023-02-25T04:15:53;35.00;26.25;17.00
78512;PMS5003;67809;55.034;73.462;2023-02-25T04:18:20;43.00;32.00;17.00
78512;PMS5003;67809;55.034;73.462;2023-02-25T04:20:46;42.33;32.00;18.33
78512;PMS5003;67809;55.034;73.462;2023-02-25T04:23:20;36.00;27.25;16.25
78512;PMS5003;67809;55.034;73.462;2023-02-25T04:25:51;48.00;34.00;20.00
78512;PMS5003;67809;55.034;73.462;2023-02-25T04:28:17;33.25;25.00;14.50
78512;PMS5003;67809;55.034;73.462;2023-02-25T04:30:53;31.67;23.33;13.00
78512;PMS5003;67809;55.034;73.462;2023-02-25T04:33:21;39.50;30.25;18.00
78512;PMS5003;67809;55.034;73.462;2023-02-25T04:35:47;47.00;31.25;17.25
78512;PMS5003;67809;55.034;73.462;2023-02-25T04:38:13;44.00;32.00;19.00
78512;PMS5003;67809;55.034;73.462;2023-02-25T04:40:39;43.67;29.00;17.00
78512;PMS5003;67809;55.034;73.462;2023-02-25T04:43:06;43.75;32.50;20.00
78512;PMS5003;67809;55.034;73.462;2023-02-25T04:45:34;43.00;33.00;18.75
78512;PMS5003;67809;55.034;73.462;2023-02-25T04:48:10;46.50;36.00;22.00
78512;PMS5003;67809;55.034;73.462;2023-02-25T04:50:36;42.50;32.50;18.25
78512;PMS5003;67809;55.034;73.462;2023-02-25T04:53:02;40.00;30.00;18.00
78512;PMS5003;67809;55.034;73.462;2023-02-25T04:55:38;33.75;24.50;15.50
78512;PMS5003;67809;55.034;73.462;2023-02-25T04:58:09;37.00;26.25;14.50
78512;PMS5003;67809;55.034;73.462;2023-02-25T05:00:45;39.50;28.75;16.25
78512;PMS5003;67809;55.034;73.462;2023-02-25T05:03:14;36.75;26.75;17.00
78512;PMS5003;67809;55.034;73.462;2023-02-25T05:05:45;37.00;29.00;17.00
78512;PMS5003;67809;55.034;73.462;2023-02-25T05:08:11;40.00;30.00;18.00
78512;PMS5003;67809;55.034;73.462;2023-02-25T05:10:40;44.00;30.33;18.33
78512;PMS5003;67809;55.034;73.462;2023-02-25T05:13:18;45.50;31.25;18.75
78512;PMS5003;67809;55.034;73.462;2023-02-25T05:15:44;43.00;32.00;18.00
78512;PMS5003;67809;55.034;73.462;2023-02-25T05:18:10;40.00;30.00;17.00
78512;PMS5003;67809;55.034;73.462;2023-02-25T05:20:46;33.25;25.50;14.00
78512;PMS5003;67809;55.034;73.462;2023-02-25T05:23:12;29.50;23.25;12.00
78512;PMS5003;67809;55.034;73.462;2023-02-25T05:25:43;37.25;26.75;14.00
78512;PMS5003;67809;55.034;73.462;2023-02-25T05:28:10;43.00;31.25;18.00
78512;PMS5003;67809;55.034;73.462;2023-02-25T05:30:41;39.00;29.25;17.50
78512;PMS5003;67809;55.034;73.462;2023-02-25T05:33:07;37.50;27.00;15.25
78512;PMS5003;67809;55.034;73.462;2023-02-25T05:35:33;39.00;27.25;16.00
78512;PMS5003;67809;55.034;73.462;2023-02-25T05:38:10;32.50;24.50;14.00
78512;PMS5003;67809;55.034;73.462;2023-02-25T05:40:46;43.00;31.00;18.00
78512;PMS5003;67809;55.034;73.462;2023-02-25T05:43:17;41.00;29.00;17.00
78512;PMS5003;67809;55.034;73.462;2023-02-25T05:45:43;35.50;26.75;16.50
78512;PMS5003;67809;55.034;73.462;2023-02-25T05:48:19;39.00;27.75;16.75
78512;PMS5003;67809;55.034;73.462;2023-02-25T05:50:50;35.50;27.00;16.00
78512;PMS5003;67809;55.034;73.462;2023-02-25T05:53:17;37.00;27.00;15.00
78512;PMS5003;67809;55.034;73.462;2023-02-25T05:55:43;41.00;29.25;18.25
78512;PMS5003;67809;55.034;73.462;2023-02-25T05:58:11;37.00;28.25;17.00
78512;PMS5003;67809;55.034;73.462;2023-02-25T06:00:37;40.50;28.00;17.00
78512;PMS5003;67809;55.034;73.462;2023-02-25T06:03:14;40.33;31.00;19.33
78512;PMS5003;67809;55.034;73.462;2023-02-25T06:05:50;44.75;33.00;18.50
78512;PMS5003;67809;55.034;73.462;2023-02-25T06:08:18;31.00;24.25;14.75
78512;PMS5003;67809;55.034;73.462;2023-02-25T06:10:44;38.00;28.25;17.00
78512;PMS5003;67809;55.034;73.462;2023-02-25T06:13:10;36.00;27.00;17.33
78512;PMS5003;67809;55.034;73.462;2023-02-25T06:15:37;42.75;31.00;20.00
78512;PMS5003;67809;55.034;73.462;2023-02-25T06:18:04;33.75;25.75;15.25
78512;PMS5003;67809;55.034;73.462;2023-02-25T06:20:31;38.25;30.00;19.00
78512;PMS5003;67809;55.034;73.462;2023-02-25T06:22:57;45.00;34.00;20.00
78512;PMS5003;67809;55.034;73.462;2023-02-25T06:25:23;44.25;31.50;17.50
78512;PMS5003;67809;55.034;73.462;2023-02-25T06:27:55;45.00;32.75;19.00
78512;PMS5003;67809;55.034;73.462;2023-02-25T06:30:21;37.50;29.00;18.50
78512;PMS5003;67809;55.034;73.462;2023-02-25T06:32:48;45.00;34.25;21.75
78512;PMS5003;67809;55.034;73.462;2023-02-25T06:35:14;41.50;28.50;17.50
78512;PMS5003;67809;55.034;73.462;2023-02-25T06:37:41;41.50;30.00;18.50
78512;PMS5003;67809;55.034;73.462;2023-02-25T06:40:07;27.50;21.25;12.50
78512;PMS5003;67809;55.034;73.462;2023-02-25T06:42:37;35.67;27.33;16.00
78512;PMS5003;67809;55.034;73.462;2023-02-25T06:45:13;37.00;25.75;16.25
78512;PMS5003;67809;55.034;73.462;2023-02-25T06:47:39;35.00;25.75;16.00
78512;PMS5003;67809;55.034;73.462;2023-02-25T06:50:06;31.50;24.50;13.75
78512;PMS5003;67809;55.034;73.462;2023-02-25T06:52:32;28.00;22.33;12.33
78512;PMS5003;67809;55.034;73.462;2023-02-25T06:54:58;27.75;21.00;11.50
78512;PMS5003;67809;55.034;73.462;2023-02-25T06:57:24;36.00;27.00;17.00
78512;PMS5003;67809;55.034;73.462;2023-02-25T06:59:55;30.00;23.00;14.00
78512;PMS5003;67809;55.034;73.462;2023-02-25T07:02:21;39.00;29.00;17.00
78512;PMS5003;67809;55.034;73.462;2023-02-25T07:04:47;32.50;21.75;14.00
78512;PMS5003;67809;55.034;73.462;2023-02-25T07:07:13;31.50;21.50;13.50
78512;PMS5003;67809;55.034;73.462;2023-02-25T07:09:44;29.75;20.75;12.00
78512;PMS5003;67809;55.034;73.462;2023-02-25T07:12:11;28.67;22.33;12.67
78512;PMS5003;67809;55.034;73.462;2023-02-25T07:14:37;32.00;25.00;15.25
78512;PMS5003;67809;55.034;73.462;2023-02-25T07:17:04;31.00;22.25;13.00
78512;PMS5003;67809;55.034;73.462;2023-02-25T07:19:30;32.00;25.00;15.00
78512;PMS5003;67809;55.034;73.462;2023-02-25T07:21:56;28.33;23.00;13.00
78512;PMS5003;67809;55.034;73.462;2023-02-25T07:24:26;29.00;22.00;12.00
78512;PMS5003;67809;55.034;73.462;2023-02-25T07:26:53;33.00;24.00;12.00
78512;PMS5003;67809;55.034;73.462;2023-02-25T07:29:20;28.25;21.00;11.75
78512;PMS5003;67809;55.034;73.462;2023-02-25T07:31:46;27.75;21.00;12.25
78512;PMS5003;67809;55.034;73.462;2023-02-25T07:34:13;27.33;18.67;10.67
78512;PMS5003;67809;55.034;73.462;2023-02-25T07:36:39;30.00;23.00;13.50
78512;PMS5003;67809;55.034;73.462;2023-02-25T07:39:16;36.00;26.00;15.00
78512;PMS5003;67809;55.034;73.462;2023-02-25T07:41:42;20.50;17.50;9.75
78512;PMS5003;67809;55.034;73.462;2023-02-25T07:44:10;34.00;25.33;16.00
78512;PMS5003;67809;55.034;73.462;2023-02-25T07:46:36;19.00;15.25;9.50
78512;PMS5003;67809;55.034;73.462;2023-02-25T07:49:04;35.75;25.25;14.50
78512;PMS5003;67809;55.034;73.462;2023-02-25T07:51:30;22.50;18.25;11.75
78512;PMS5003;67809;55.034;73.462;2023-02-25T07:53:56;31.25;24.00;14.00
78512;PMS5003;67809;55.034;73.462;2023-02-25T07:56:23;27.00;21.00;12.75
78512;PMS5003;67809;55.034;73.462;2023-02-25T07:58:51;31.00;23.00;13.50
78512;PMS5003;67809;55.034;73.462;2023-02-25T08:01:31;32.25;26.00;14.50
78512;PMS5003;67809;55.034;73.462;2023-02-25T08:03:59;32.25;24.00;14.00
78512;PMS5003;67809;55.034;73.462;2023-02-25T08:06:26;32.75;25.00;15.25
78512;PMS5003;67809;55.034;73.462;2023-02-25T08:08:57;34.00;26.00;14.50
78512;PMS5003;67809;55.034;73.462;2023-02-25T08:11:24;30.00;23.00;12.75
78512;PMS5003;67809;55.034;73.462;2023-02-25T08:14:00;33.00;22.33;13.00
78512;PMS5003;67809;55.034;73.462;2023-02-25T08:16:32;27.75;20.50;12.00
78512;PMS5003;67809;55.034;73.462;2023-02-25T08:18:58;24.75;20.25;11.75
78512;PMS5003;67809;55.034;73.462;2023-02-25T08:21:24;25.25;19.75;11.75
78512;PMS5003;67809;55.034;73.462;2023-02-25T08:23:56;23.25;18.00;12.00
78512;PMS5003;67809;55.034;73.462;2023-02-25T08:26:22;32.00;24.00;14.00
78512;PMS5003;67809;55.034;73.462;2023-02-25T08:28:59;29.00;23.50;15.00
78512;PMS5003;67809;55.034;73.462;2023-02-25T08:31:35;31.00;23.75;12.00
78512;PMS5003;67809;55.034;73.462;2023-02-25T08:34:02;35.67;24.67;15.67
78512;PMS5003;67809;55.034;73.462;2023-02-25T08:36:38;36.00;27.00;17.50
78512;PMS5003;67809;55.034;73.462;2023-02-25T08:39:11;32.50;24.75;16.00
78512;PMS5003;67809;55.034;73.462;2023-02-25T08:41:38;39.25;29.25;17.00
78512;PMS5003;67809;55.034;73.462;2023-02-25T08:44:04;31.00;25.00;14.00
78512;PMS5003;67809;55.034;73.462;2023-02-25T08:46:33;35.75;26.00;16.75
78512;PMS5003;67809;55.034;73.462;2023-02-25T08:49:00;32.50;25.50;15.00
78512;PMS5003;67809;55.034;73.462;2023-02-25T08:51:27;37.00;26.00;16.00
78512;PMS5003;67809;55.034;73.462;2023-02-25T08:54:02;34.67;26.00;17.00
78512;PMS5003;67809;55.034;73.462;2023-02-25T08:56:28;34.50;27.50;16.00
78512;PMS5003;67809;55.034;73.462;2023-02-25T08:58:55;35.50;25.50;16.25
78512;PMS5003;67809;55.034;73.462;2023-02-25T09:01:21;31.00;24.50;14.75
78512;PMS5003;67809;55.034;73.462;2023-02-25T09:03:47;38.00;28.00;16.00
78512;PMS5003;67809;55.034;73.462;2023-02-25T09:06:32;35.50;26.00;16.00
78512;PMS5003;67809;55.034;73.462;2023-02-25T09:09:03;37.50;27.50;17.00
78512;PMS5003;67809;55.034;73.462;2023-02-25T09:11:35;36.75;28.00;17.75
78512;PMS5003;67809;55.034;73.462;2023-02-25T09:14:04;38.00;29.00;17.00
78512;PMS5003;67809;55.034;73.462;2023-02-25T09:16:34;37.00;28.00;17.00
78512;PMS5003;67809;55.034;73.462;2023-02-25T09:19:00;33.50;27.00;15.75
78512;PMS5003;67809;55.034;73.462;2023-02-25T09:21:26;36.25;28.00;17.25
78512;PMS5003;67809;55.034;73.462;2023-02-25T09:23:52;39.00;28.00;16.00
78512;PMS5003;67809;55.034;73.462;2023-02-25T09:26:24;36.00;26.25;15.50
78512;PMS5003;67809;55.034;73.462;2023-02-25T09:28:50;41.00;30.00;17.00
78512;PMS5003;67809;55.034;73.462;2023-02-25T09:31:20;33.00;26.00;17.00
78512;PMS5003;67809;55.034;73.462;2023-02-25T09:33:46;37.00;26.75;15.50
78512;PMS5003;67809;55.034;73.462;2023-02-25T09:36:14;35.00;27.00;17.00
78512;PMS5003;67809;55.034;73.462;2023-02-25T09:38:41;34.50;27.50;17.25
78512;PMS5003;67809;55.034;73.462;2023-02-25T09:43:50;36.00;27.75;17.00
78512;PMS5003;67809;55.034;73.462;2023-02-25T09:46:20;37.75;26.50;16.75
78512;PMS5003;67809;55.034;73.462;2023-02-25T09:51:51;34.00;26.75;15.50
78512;PMS5003;67809;55.034;73.462;2023-02-25T09:56:49;33.00;25.75;15.50
78512;PMS5003;67809;55.034;73.462;2023-02-25T09:59:25;31.50;24.75;15.00
78512;PMS5003;67809;55.034;73.462;2023-02-25T10:01:59;31.50;23.00;15.00
78512;PMS5003;67809;55.034;73.462;2023-02-25T10:04:42;34.67;25.67;15.00
78512;PMS5003;67809;55.034;73.462;2023-02-25T10:07:16;34.25;27.00;17.00
78512;PMS5003;67809;55.034;73.462;2023-02-25T10:10:00;35.50;27.25;16.00
78512;PMS5003;67809;55.034;73.462;2023-02-25T10:12:35;34.75;25.25;15.75
78512;PMS5003;67809;55.034;73.462;2023-02-25T10:25:29;38.00;30.00;17.00
78512;PMS5003;67809;55.034;73.462;2023-02-25T10:28:13;36.25;26.50;16.50
78512;PMS5003;67809;55.034;73.462;2023-02-25T10:31:02;30.00;23.00;13.50
78512;PMS5003;67809;55.034;73.462;2023-02-25T10:33:30;34.25;26.50;16.00
78512;PMS5003;67809;55.034;73.462;2023-02-25T10:36:17;31.00;24.00;14.00
78512;PMS5003;67809;55.034;73.462;2023-02-25T10:38:48;39.00;29.00;16.50
78512;PMS5003;67809;55.034;73.462;2023-02-25T10:41:15;33.75;26.00;16.00
78512;PMS5003;67809;55.034;73.462;2023-02-25T10:43:42;38.00;29.00;17.25
78512;PMS5003;67809;55.034;73.462;2023-02-25T10:46:33;33.67;24.67;14.00
78512;PMS5003;67809;55.034;73.462;2023-02-25T10:49:02;37.00;27.00;17.00
78512;PMS5003;67809;55.034;73.462;2023-02-25T10:51:28;28.00;22.00;13.75
78512;PMS5003;67809;55.034;73.462;2023-02-25T10:54:05;32.00;22.00;13.50
78512;PMS5003;67809;55.034;73.462;2023-02-25T10:56:37;34.25;27.00;16.00
78512;PMS5003;67809;55.034;73.462;2023-02-25T10:59:23;27.25;21.50;13.25
78512;PMS5003;67809;55.034;73.462;2023-02-25T11:01:50;33.50;23.50;14.00
78512;PMS5003;67809;55.034;73.462;2023-02-25T11:04:23;31.75;24.75;14.50
78512;PMS5003;67809;55.034;73.462;2023-02-25T11:06:58;30.50;24.00;14.50
78512;PMS5003;67809;55.034;73.462;2023-02-25T11:09:34;28.75;21.25;13.50
78512;PMS5003;67809;55.034;73.462;2023-02-25T11:12:17;29.00;22.50;14.00
78512;PMS5003;67809;55.034;73.462;2023-02-25T11:14:44;37.00;26.67;18.00
78512;PMS5003;67809;55.034;73.462;2023-02-25T11:19:44;31.50;24.00;15.25
78512;PMS5003;67809;55.034;73.462;2023-02-25T11:22:22;34.00;26.00;16.00
78512;PMS5003;67809;55.034;73.462;2023-02-25T11:24:56;42.00;30.25;18.00
78512;PMS5003;67809;55.034;73.462;2023-02-25T11:32:34;36.00;27.50;17.25
78512;PMS5003;67809;55.034;73.462;2023-02-25T11:35:06;42.00;31.00;17.00
78512;PMS5003;67809;55.034;73.462;2023-02-25T11:37:38;36.00;25.50;15.50
78512;PMS5003;67809;55.034;73.462;2023-02-25T11:42:58;34.75;26.25;16.25
78512;PMS5003;67809;55.034;73.462;2023-02-25T11:45:34;34.75;26.25;16.75
78512;PMS5003;67809;55.034;73.462;2023-02-25T11:48:03;41.75;31.50;20.00
78512;PMS5003;67809;55.034;73.462;2023-02-25T11:53:03;39.50;29.75;18.50
78512;PMS5003;67809;55.034;73.462;2023-02-25T11:58:17;40.50;30.75;19.00
78512;PMS5003;67809;55.034;73.462;2023-02-25T12:01:14;40.50;31.25;19.00
78512;PMS5003;67809;55.034;73.462;2023-02-25T12:03:51;33.25;25.00;14.75
78512;PMS5003;67809;55.034;73.462;2023-02-25T12:09:11;46.75;34.00;20.50
78512;PMS5003;67809;55.034;73.462;2023-02-25T12:22:39;34.50;24.50;13.75
78512;PMS5003;67809;55.034;73.462;2023-02-25T12:57:20;41.67;31.33;20.00
78512;PMS5003;67809;55.034;73.462;2023-02-25T13:16:50;46.00;34.25;19.75
78512;PMS5003;67809;55.034;73.462;2023-02-25T13:19:33;54.00;37.75;22.50
78512;PMS5003;67809;55.034;73.462;2023-02-25T13:22:11;54.00;38.50;23.00
78512;PMS5003;67809;55.034;73.462;2023-02-25T13:44:10;39.75;30.50;17.75
78512;PMS5003;67809;55.034;73.462;2023-02-25T13:49:35;51.00;39.00;23.25
78512;PMS5003;67809;55.034;73.462;2023-02-25T13:54:42;51.75;38.75;23.50
78512;PMS5003;67809;55.034;73.462;2023-02-25T14:14:11;42.25;31.25;18.50
78512;PMS5003;67809;55.034;73.462;2023-02-25T14:21:49;50.00;38.75;25.00
78512;PMS5003;67809;55.034;73.462;2023-02-25T14:27:13;41.00;31.00;17.00
78512;PMS5003;67809;55.034;73.462;2023-02-25T14:37:56;43.33;31.00;19.67
78512;PMS5003;67809;55.034;73.462;2023-02-25T14:45:31;33.00;24.00;14.75
78512;PMS5003;67809;55.034;73.462;2023-02-25T14:48:14;39.00;27.33;16.67
78512;PMS5003;67809;55.034;73.462;2023-02-25T14:50:44;29.25;23.00;12.25
78512;PMS5003;67809;55.034;73.462;2023-02-25T14:53:27;37.50;28.25;18.50
78512;PMS5003;67809;55.034;73.462;2023-02-25T15:01:35;37.50;26.50;16.50
78512;PMS5003;67809;55.034;73.462;2023-02-25T15:04:21;33.25;24.50;15.00
78512;PMS5003;67809;55.034;73.462;2023-02-25T15:22:36;38.50;26.75;15.50
78512;PMS5003;67809;55.034;73.462;2023-02-25T15:25:34;36.00;26.00;13.75
78512;PMS5003;67809;55.034;73.462;2023-02-25T15:33:38;33.25;24.50;14.25
78512;PMS5003;67809;55.034;73.462;2023-02-25T15:38:50;33.67;26.33;16.00
78512;PMS5003;67809;55.034;73.462;2023-02-25T15:51:49;29.50;23.25;14.25
78512;PMS5003;67809;55.034;73.462;2023-02-25T15:56:58;25.00;18.00;9.75
78512;PMS5003;67809;55.034;73.462;2023-02-25T16:04:50;31.50;23.50;13.00
78512;PMS5003;67809;55.034;73.462;2023-02-25T16:07:22;29.40;23.40;14.00
78512;PMS5003;67809;55.034;73.462;2023-02-25T16:09:56;36.00;26.00;15.50
78512;PMS5003;67809;55.034;73.462;2023-02-25T16:12:23;27.50;21.50;12.25
78512;PMS5003;67809;55.034;73.462;2023-02-25T16:14:50;26.50;20.25;11.75
78512;PMS5003;67809;55.034;73.462;2023-02-25T16:17:29;23.00;18.00;10.00
78512;PMS5003;67809;55.034;73.462;2023-02-25T16:20:16;24.25;18.25;10.50
78512;PMS5003;67809;55.034;73.462;2023-02-25T16:22:57;20.00;15.75;9.25
78512;PMS5003;67809;55.034;73.462;2023-02-25T16:25:41;25.50;20.00;11.00
78512;PMS5003;67809;55.034;73.462;2023-02-25T16:28:30;19.75;16.50;8.00
78512;PMS5003;67809;55.034;73.462;2023-02-25T16:39:07;33.00;25.00;16.33
78512;PMS5003;67809;55.034;73.462;2023-02-25T16:41:46;32.50;25.25;14.00
78512;PMS5003;67809;55.034;73.462;2023-02-25T16:44:17;30.25;22.75;12.50
78512;PMS5003;67809;55.034;73.462;2023-02-25T16:46:46;28.75;22.25;12.00
78512;PMS5003;67809;55.034;73.462;2023-02-25T16:49:18;31.00;22.50;12.25
78512;PMS5003;67809;55.034;73.462;2023-02-25T16:51:53;29.00;22.25;13.25
78512;PMS5003;67809;55.034;73.462;2023-02-25T16:57:30;25.50;20.50;11.75
78512;PMS5003;67809;55.034;73.462;2023-02-25T17:00:16;28.00;21.67;13.00
78512;PMS5003;67809;55.034;73.462;2023-02-25T17:02:49;32.00;24.25;14.00
78512;PMS5003;67809;55.034;73.462;2023-02-25T17:05:35;32.25;25.25;14.25
78512;PMS5003;67809;55.034;73.462;2023-02-25T17:08:15;31.50;25.00;17.00
78512;PMS5003;67809;55.034;73.462;2023-02-25T17:10:43;27.75;20.25;12.50
78512;PMS5003;67809;55.034;73.462;2023-02-25T17:13:23;25.50;21.00;13.75
78512;PMS5003;67809;55.034;73.462;2023-02-25T17:15:55;33.75;25.00;15.00
78512;PMS5003;67809;55.034;73.462;2023-02-25T17:18:31;21.33;15.00;9.00
78512;PMS5003;67809;55.034;73.462;2023-02-25T17:21:07;20.25;16.50;10.25
78512;PMS5003;67809;55.034;73.462;2023-02-25T17:23:38;30.50;24.00;14.50
78512;PMS5003;67809;55.034;73.462;2023-02-25T17:26:05;25.25;19.50;11.00
78512;PMS5003;67809;55.034;73.462;2023-02-25T17:28:39;22.00;17.00;9.33
78512;PMS5003;67809;55.034;73.462;2023-02-25T17:31:10;22.50;17.25;9.00
78512;PMS5003;67809;55.034;73.462;2023-02-25T17:33:46;22.00;16.50;10.50
78512;PMS5003;67809;55.034;73.462;2023-02-25T17:36:21;22.25;17.25;10.25
78512;PMS5003;67809;55.034;73.462;2023-02-25T17:38:49;26.67;21.00;12.00
78512;PMS5003;67809;55.034;73.462;2023-02-25T17:41:28;28.75;22.25;12.50
78512;PMS5003;67809;55.034;73.462;2023-02-25T17:43:54;20.00;17.00;10.00
78512;PMS5003;67809;55.034;73.462;2023-02-25T17:46:31;21.25;17.25;12.00
78512;PMS5003;67809;55.034;73.462;2023-02-25T17:51:52;27.75;21.75;12.75
78512;PMS5003;67809;55.034;73.462;2023-02-25T17:54:20;21.50;16.25;9.25
78512;PMS5003;67809;55.034;73.462;2023-02-25T18:01:54;26.00;19.75;11.50
78512;PMS5003;67809;55.034;73.462;2023-02-25T18:04:25;24.00;20.00;14.00
78512;PMS5003;67809;55.034;73.462;2023-02-25T18:07:19;22.75;18.25;11.00
78512;PMS5003;67809;55.034;73.462;2023-02-25T18:09:45;30.00;23.00;14.00